MMMA/MAM METAR and TAF weather

Enter ICAO airport designator
Station Type Date Time Source
MMMA METAR 2019/02/17 01:42 UTC NOAA

MMMA 170142Z 14010KT 5SM BKN010 OVC015 23/22 A2960 RMK 8/8// HZ


Station Type Date Time Source
MMMA Decoded METAR 2019/02/17 01:42 UTC NOAA

Matamoros International , Mexico (MMMA) 25-46N 097-32W
Feb 16, 2019 - 08:42 PM EST / 2019.02.17 0142 UTC
Wind: from the SE (140 degrees) at 12 MPH (10 KT):0
Visibility: 5 mile(s):0
Sky conditions: overcast
Temperature: 73 F (23 C)
Dew Point: 71 F (22 C)
Relative Humidity: 94%
Pressure (altimeter): 29.6 in. Hg (1002 hPa)
ob: MMMA 170142Z 14010KT 5SM BKN010 OVC015 23/22 A2960 RMK 8/8// HZ
cycle: 1

Station Type Date Time Source
MMMA TAF 2019/02/17 06:14 UTC NOAA

TAF MMMA 170506Z 1706/1806 14010KT 4SM HZ OVC010
TEMPO 1711/1715 1 1/2SM -DZ BR BKN005
FM171800 35018KT 5SM HZ BKN015 BKN250
FM180500 36010KT 5SM HZ BKN012


Example: see airport list